createdAt,value
2018-12-24T00:05:00.430Z,100689
2018-12-24T00:10:23.157Z,100682
2018-12-24T00:15:45.860Z,100693
2018-12-24T00:21:08.641Z,100711
2018-12-24T00:26:31.319Z,100715
2018-12-24T00:31:54.212Z,100726
2018-12-24T00:37:16.919Z,100736
2018-12-24T00:42:40.536Z,100747
2018-12-24T00:48:03.223Z,100759
2018-12-24T00:53:26.952Z,100776
2018-12-24T00:58:49.860Z,100787
2018-12-24T01:04:12.568Z,100789
2018-12-24T01:09:35.339Z,100809
2018-12-24T01:14:58.570Z,100823
2018-12-24T01:20:30.635Z,100824
2018-12-24T01:25:53.512Z,100834
2018-12-24T01:31:16.449Z,100851
2018-12-24T01:36:48.876Z,100864
2018-12-24T01:42:20.695Z,100877
2018-12-24T01:47:44.011Z,100878
2018-12-24T01:53:16.328Z,100884
2018-12-24T01:58:38.950Z,100897
2018-12-24T02:04:01.721Z,100908
2018-12-24T02:09:24.552Z,100921
2018-12-24T02:14:48.041Z,100924
2018-12-24T02:20:11.575Z,100938
2018-12-24T02:25:34.281Z,100959
2018-12-24T02:30:57.071Z,100961
2018-12-24T02:36:19.856Z,100971
2018-12-24T02:41:42.580Z,100988
2018-12-24T02:47:06.201Z,100993
2018-12-24T02:52:30.682Z,101003
2018-12-24T02:57:53.592Z,101015
2018-12-24T03:03:16.518Z,101021
2018-12-24T03:08:48.372Z,101034
2018-12-24T03:14:20.307Z,101044
2018-12-24T03:19:43.166Z,101049
2018-12-24T03:25:05.849Z,101059
2018-12-24T03:30:28.619Z,101061
2018-12-24T03:35:51.334Z,101065
2018-12-24T03:41:14.127Z,101069
2018-12-24T03:46:37.822Z,101081
2018-12-24T03:52:10.432Z,101091
2018-12-24T03:57:42.303Z,101104
2018-12-24T04:03:06.106Z,101115
2018-12-24T04:08:28.930Z,101129
2018-12-24T04:13:52.065Z,101146
2018-12-24T04:19:23.842Z,101163
2018-12-24T04:24:46.596Z,101176
2018-12-24T04:30:10.343Z,101185
2018-12-24T04:35:33.226Z,101193
2018-12-24T04:40:55.976Z,101210
2018-12-24T04:46:19.034Z,101235
2018-12-24T04:51:41.845Z,101248
2018-12-24T04:57:14.856Z,101259
2018-12-24T05:02:46.900Z,101272
2018-12-24T05:08:19.026Z,101300
2018-12-24T05:13:50.980Z,101311
2018-12-24T05:19:23.142Z,101318
2018-12-24T05:24:56.437Z,101335
2018-12-24T05:30:19.365Z,101340
2018-12-24T05:35:51.084Z,101355
2018-12-24T05:41:14.032Z,101371
2018-12-24T05:46:36.803Z,101399
2018-12-24T05:51:59.615Z,101416
2018-12-24T05:57:32.209Z,101431
2018-12-24T06:02:56.212Z,101447
2018-12-24T06:08:29.261Z,101449
2018-12-24T06:14:01.173Z,101471
2018-12-24T06:19:23.969Z,101482
2018-12-24T06:24:46.852Z,101499
2018-12-24T06:30:09.647Z,101527
2018-12-24T06:35:32.387Z,101553
2018-12-24T06:41:05.832Z,101575
2018-12-24T06:46:37.820Z,101589
2018-12-24T06:52:11.360Z,101603
2018-12-24T06:57:34.476Z,101632
2018-12-24T07:02:57.356Z,101661
2018-12-24T07:08:29.827Z,101650
2018-12-24T07:13:52.644Z,101642
2018-12-24T07:19:16.177Z,101657
2018-12-24T07:24:38.976Z,101658
2018-12-24T07:30:01.713Z,101652
2018-12-24T07:35:24.441Z,101657
2018-12-24T07:40:47.230Z,101662
2018-12-24T07:46:09.949Z,101675
2018-12-24T07:51:32.849Z,101688
2018-12-24T07:56:55.612Z,101701
2018-12-24T08:02:18.369Z,101727
2018-12-24T08:07:41.639Z,101740
2018-12-24T08:13:04.653Z,101751
2018-12-24T08:18:27.412Z,101760
2018-12-24T08:23:59.328Z,101776
2018-12-24T08:29:22.147Z,101789
2018-12-24T08:34:53.879Z,101790
2018-12-24T08:40:16.561Z,101814
2018-12-24T08:45:40.377Z,101848
2018-12-24T08:51:03.541Z,101871
2018-12-24T08:56:55.529Z,101896
2018-12-24T09:02:18.279Z,101923
2018-12-24T09:07:41.828Z,101923
2018-12-24T09:13:05.417Z,101936
2018-12-24T09:18:28.065Z,101942
2018-12-24T09:23:50.849Z,101967
2018-12-24T09:29:14.713Z,101973
2018-12-24T09:34:38.280Z,101974
2018-12-24T09:40:01.027Z,101980
2018-12-24T09:45:33.548Z,101994
2018-12-24T09:50:56.407Z,102004
2018-12-24T09:56:19.118Z,102016
2018-12-24T10:01:42.463Z,102018
2018-12-24T10:07:05.335Z,102021
2018-12-24T10:12:38.251Z,102030
2018-12-24T10:18:01.023Z,102035
2018-12-24T10:23:24.666Z,102041
2018-12-24T10:28:47.556Z,102042
2018-12-24T10:34:10.207Z,102046
2018-12-24T10:39:32.899Z,102051
2018-12-24T10:44:56.709Z,102049
2018-12-24T10:50:19.428Z,102053
2018-12-24T10:55:42.164Z,102047
2018-12-24T11:01:05.474Z,102050
2018-12-24T11:06:28.214Z,102034
2018-12-24T11:11:51.021Z,102037
2018-12-24T11:17:13.739Z,102036
2018-12-24T11:22:36.467Z,102056
2018-12-24T11:27:59.722Z,102059
2018-12-24T11:33:22.740Z,102075
2018-12-24T11:38:45.910Z,102083
2018-12-24T11:44:08.872Z,102095
2018-12-24T11:49:32.720Z,102094
2018-12-24T11:54:55.669Z,102101
2018-12-24T12:00:18.460Z,102101
2018-12-24T12:05:41.306Z,102106
2018-12-24T12:11:03.963Z,102112
2018-12-24T12:16:27.265Z,102108
2018-12-24T12:21:50.123Z,102108
2018-12-24T12:27:13.705Z,102113
2018-12-24T12:32:36.384Z,102120
2018-12-24T12:37:59.078Z,102138
2018-12-24T12:43:23.013Z,102139
2018-12-24T12:48:45.855Z,102140
2018-12-24T12:54:08.589Z,102142
2018-12-24T12:59:32.973Z,102143
2018-12-24T13:04:55.937Z,102158
2018-12-24T13:10:18.772Z,102159
2018-12-24T13:15:41.994Z,102164
2018-12-24T13:21:04.802Z,102166
2018-12-24T13:26:27.678Z,102167
2018-12-24T13:31:50.360Z,102174
2018-12-24T13:37:13.064Z,102197
2018-12-24T13:42:35.911Z,102202
2018-12-24T13:47:58.643Z,102201
2018-12-24T13:53:21.342Z,102209
2018-12-24T13:58:44.051Z,102213
2018-12-24T14:04:06.792Z,102216
2018-12-24T14:09:29.482Z,102223
2018-12-24T14:14:52.205Z,102223
2018-12-24T14:20:14.917Z,102227
2018-12-24T14:25:38.414Z,102236
2018-12-24T14:31:01.486Z,102240
2018-12-24T14:36:24.239Z,102246
2018-12-24T14:41:47.023Z,102243
2018-12-24T14:47:09.693Z,102242
2018-12-24T14:52:32.392Z,102246
2018-12-24T14:57:55.195Z,102251
2018-12-24T15:03:19.044Z,102255
2018-12-24T15:08:41.711Z,102252
2018-12-24T15:14:04.485Z,102258
2018-12-24T15:19:27.142Z,102257
2018-12-24T15:24:49.868Z,102238
2018-12-24T15:30:12.630Z,102243
2018-12-24T15:35:35.311Z,102254
2018-12-24T15:40:58.502Z,102259
2018-12-24T15:46:21.475Z,102257
2018-12-24T15:51:44.589Z,102259
2018-12-24T15:57:07.326Z,102275
2018-12-24T16:02:30.089Z,102269
2018-12-24T16:07:52.858Z,102285
2018-12-24T16:13:15.697Z,102293
2018-12-24T16:18:38.483Z,102301
2018-12-24T16:24:01.202Z,102303
2018-12-24T16:29:24.375Z,102307
2018-12-24T16:34:47.390Z,102322
2018-12-24T16:40:10.156Z,102344
2018-12-24T16:45:33.007Z,102342
2018-12-24T16:50:55.786Z,102330
2018-12-24T16:56:18.572Z,102350
2018-12-24T17:01:41.352Z,102340
2018-12-24T17:07:04.106Z,102343
2018-12-24T17:12:26.834Z,102338
2018-12-24T17:17:49.535Z,102346
